EW5444 Fucecchio IT current weather conditions

sailwx.info

Wind from 249 at 0 knots gusting 11

Air temperature 27.2° C
Dewpoint 21.9° C

Last reported at 2020-Aug-15 17:59 UTC.
Time now 2020-Aug-15 19:09 UTC

Location: N 43°44' E 010°48'.
View on Google Maps.

See reports from other nearby stations

  
Tides and Currents Weather Stations Pressure Air Temp Water Temp Dewpoint Dewpoint Depression Visibility Wind Speed Wind Dir Waves Ship Positions
date/time (UTC)wind fromknots sea level pressurealtimeterstation pressurevisibilityair tempwater tempwave heightnotes
2020-Aug-15 17:59 249 0 gusting 11 27.2
2020-Aug-15 17:49 261 6 gusting 8 27.8
2020-Aug-15 17:39 311 2 gusting 11 28.3
2020-Aug-15 17:29 288 4 gusting 10 28.9
2020-Aug-15 17:19 292 1 gusting 9 28.9
2020-Aug-15 17:09 290 3 gusting 8 30.0
2020-Aug-15 16:59 281 6 gusting 13 29.4
2020-Aug-15 16:49 267 2 gusting 10 30.0
2020-Aug-15 16:39 269 2 gusting 10 30.0
2020-Aug-15 16:29 276 6 gusting 15 30.0
2020-Aug-15 16:19 255 7 gusting 13 30.0
2020-Aug-15 16:09 260 6 gusting 14 30.0
2020-Aug-15 15:59 253 4 gusting 13 30.6
2020-Aug-15 15:49 263 7 gusting 13 30.6
2020-Aug-15 15:39 242 8 gusting 13 31.1
2020-Aug-15 15:29 267 6 gusting 13 31.1
2020-Aug-15 15:19 286 15 gusting 15 31.1
2020-Aug-15 15:09 249 10 gusting 16 31.1
2020-Aug-15 14:59 245 8 gusting 13 31.1
2020-Aug-15 14:49 239 9 gusting 12 31.7
2020-Aug-15 14:39 285 6 gusting 12 31.7
2020-Aug-15 14:29 281 9 gusting 12 31.7
2020-Aug-15 14:19 281 6 gusting 12 31.7
2020-Aug-15 14:09 281 5 gusting 14 31.7
2020-Aug-15 13:59 267 5 gusting 13 31.7
2020-Aug-15 13:49 239 6 gusting 13 31.7
2020-Aug-15 13:39 221 7 gusting 13 31.7
2020-Aug-15 13:29 281 8 gusting 13 31.7
2020-Aug-15 13:19 225 6 gusting 12 31.7
2020-Aug-15 13:09 208 6 gusting 10 31.7
2020-Aug-15 12:59 238 2 gusting 13 31.7
2020-Aug-15 12:49 214 7 gusting 13 31.7
2020-Aug-15 12:39 266 6 gusting 11 31.7
2020-Aug-15 12:29 309 1 gusting 11 32.2
2020-Aug-15 12:19 160 7 gusting 12 32.2
2020-Aug-15 12:09 250 3 gusting 11 32.2
2020-Aug-15 11:59 253 1 gusting 13 32.2
2020-Aug-15 11:49 208 4 gusting 6 32.2
2020-Aug-15 11:39 191 3 gusting 7 32.2
2020-Aug-15 11:29 213 31.7
2020-Aug-15 11:19 232 3 gusting 6 32.2
2020-Aug-15 11:09 072 0 gusting 5 31.1
2020-Aug-15 10:59 167 4 gusting 6 31.1
2020-Aug-15 10:49 294 2 gusting 6 31.1
2020-Aug-15 10:39 211 1 gusting 5 30.6
2020-Aug-15 10:29 271 30.0
2020-Aug-15 10:19 001 30.0
2020-Aug-15 10:09 024 4 gusting 6 29.4
2020-Aug-15 09:59 325 1 gusting 5 30.0
2020-Aug-15 09:49 232 0 gusting 2 29.4
2020-Aug-15 09:39 313 1 gusting 5 28.9
2020-Aug-15 09:29 281 1 gusting 3 28.9
2020-Aug-15 09:19 223 1 gusting 4 28.9
2020-Aug-15 09:09 191 27.8
2020-Aug-15 08:59 255 2 gusting 3 28.3
2020-Aug-15 08:49 222 27.8
2020-Aug-15 08:39 295 26.7
2020-Aug-15 08:29 235 26.7
2020-Aug-15 08:19 036 26.7
2020-Aug-15 08:09 351 26.7
2020-Aug-15 07:59 019 26.7
2020-Aug-15 07:49 239 26.7
2020-Aug-15 07:39 221 27.2
2020-Aug-15 07:29 093 26.1
2020-Aug-15 07:19 094 25.6
2020-Aug-15 07:09 335 24.4
2020-Aug-15 06:59 040 24.4
2020-Aug-15 06:49 027 23.9
2020-Aug-15 06:39 343 23.3
2020-Aug-15 06:29 043 0 gusting 2 23.3
2020-Aug-15 06:19 043 22.8
2020-Aug-15 06:09 006 22.8
2020-Aug-15 05:59 006 22.8
2020-Aug-15 05:49 006 22.2
2020-Aug-15 05:39 041 21.7
2020-Aug-15 05:29 039 21.7
2020-Aug-15 05:19 033 1 gusting 1 21.7
2020-Aug-15 05:09 023 21.7
2020-Aug-15 04:59 023 21.7
2020-Aug-15 04:49 023 21.7
2020-Aug-15 04:39 039 21.1
2020-Aug-15 04:29 088 21.1
2020-Aug-15 04:19 091 21.1
2020-Aug-15 04:09 046 21.1
2020-Aug-15 03:59 050 21.7
2020-Aug-15 03:49 050 21.7
2020-Aug-15 03:39 030 21.7
2020-Aug-15 03:29 025 21.7
2020-Aug-15 03:19 026 21.7
2020-Aug-15 03:09 027 2 gusting 2 22.2
2020-Aug-15 02:59 338 22.8
2020-Aug-15 02:49 338 22.8
2020-Aug-15 02:39 338 23.3
2020-Aug-15 02:29 338 23.3
2020-Aug-15 02:19 339 23.3
2020-Aug-15 02:09 339 23.3
2020-Aug-15 01:59 338 23.3
2020-Aug-15 01:49 338 23.3
2020-Aug-15 01:39 056 23.3
2020-Aug-15 01:29 026 0 gusting 1 23.3
2020-Aug-15 01:19 045 23.3
2020-Aug-15 01:09 043 23.3
2020-Aug-15 00:59 029 22.8
2020-Aug-15 00:49 044 22.8
2020-Aug-15 00:39 043 22.8
2020-Aug-15 00:29 044 22.8
2020-Aug-15 00:19 096 22.8
2020-Aug-15 00:09 025 22.8
2020-Aug-14 23:59 242 23.9
2020-Aug-14 23:49 243 23.9
2020-Aug-14 23:39 243 23.9
2020-Aug-14 23:29 243 23.9
2020-Aug-14 23:19 243 23.9
2020-Aug-14 23:09 246 23.9
2020-Aug-14 22:59 269 24.4
2020-Aug-14 22:49 032 24.4
2020-Aug-14 22:39 033 24.4
2020-Aug-14 22:29 033 24.4
2020-Aug-14 22:19 256 24.4
2020-Aug-14 22:09 256 24.4
2020-Aug-14 21:59 201 0 gusting 2 25.0
2020-Aug-14 21:49 212 0 gusting 1 25.0
2020-Aug-14 21:39 219 1 gusting 2 25.0
2020-Aug-14 21:29 232 25.0
2020-Aug-14 21:19 229 0 gusting 4 25.0
2020-Aug-14 21:09 190 3 gusting 4 25.0
2020-Aug-14 20:59 211 0 gusting 4 25.0
2020-Aug-14 20:49 229 1 gusting 3 25.6
2020-Aug-14 20:39 231 1 gusting 2 25.6
2020-Aug-14 20:29 224 25.6
2020-Aug-14 20:19 252 25.6
2020-Aug-14 20:09 267 0 gusting 3 25.6
2020-Aug-14 19:59 259 0 gusting 4 25.6
2020-Aug-14 19:49 263 3 gusting 5 25.6
2020-Aug-14 19:39 269 26.1
2020-Aug-14 19:29 240 1 gusting 3 26.1
2020-Aug-14 19:19 279 1 gusting 4 26.1
2020-Aug-14 19:09 285 1 gusting 8 26.7
2020-Aug-14 18:59 268 2 gusting 11 26.7
2020-Aug-14 18:49 274 6 gusting 13 26.7
2020-Aug-14 18:39 245 7 gusting 13 26.7
2020-Aug-14 18:29 245 4 gusting 13 26.7
2020-Aug-14 18:19 276 7 gusting 13 27.2
2020-Aug-14 18:09 267 8 gusting 12 27.2
2020-Aug-14 17:59 278 6 gusting 13 27.8
2020-Aug-14 17:49 219 7 gusting 11 27.8
2020-Aug-14 17:39 297 2 gusting 11 27.8
2020-Aug-14 17:29 262 7 gusting 11 28.3
2020-Aug-14 17:19 250 8 gusting 11 28.9
2020-Aug-14 17:09 262 1 gusting 12 29.4
2020-Aug-14 16:59 272 7 gusting 11 29.4
2020-Aug-14 16:49 210 6 gusting 9 30.0
2020-Aug-14 16:39 277 7 gusting 10 30.0
2020-Aug-14 16:29 265 6 gusting 14 30.0
2020-Aug-14 16:19 273 10 gusting 15 30.6
2020-Aug-14 16:09 271 7 gusting 12 30.6
2020-Aug-14 15:59 201 6 gusting 12 31.1
2020-Aug-14 15:49 263 6 gusting 14 31.7
2020-Aug-14 15:39 232 5 gusting 13 31.7
2020-Aug-14 15:29 259 0 gusting 10 31.7
2020-Aug-14 15:19 253 8 gusting 12 31.7
2020-Aug-14 15:09 273 9 gusting 13 31.7
2020-Aug-14 14:59 250 8 gusting 12 31.7
2020-Aug-14 14:49 278 2 gusting 18 31.7
2020-Aug-14 14:39 273 5 gusting 14 31.7
2020-Aug-14 14:29 236 10 gusting 15 31.7
2020-Aug-14 14:19 274 7 gusting 14 32.2
2020-Aug-14 14:09 239 3 gusting 13 32.2
2020-Aug-14 13:59 208 5 gusting 13 32.8
2020-Aug-14 13:49 215 5 gusting 13 32.2
2020-Aug-14 13:39 278 10 gusting 15 32.8
2020-Aug-14 13:29 270 6 gusting 13 32.8
2020-Aug-14 13:19 219 4 gusting 13 33.3
2020-Aug-14 13:09 208 3 gusting 11 33.3
2020-Aug-14 12:59 229 0 gusting 8 32.8
2020-Aug-14 12:49 259 33.3
2020-Aug-14 12:39 212 33.3
2020-Aug-14 12:29 173 3 gusting 6 33.3
2020-Aug-14 12:19 252 3 gusting 7 32.8
2020-Aug-14 12:09 260 5 gusting 8 32.8
2020-Aug-14 11:59 222 5 gusting 10 32.2
2020-Aug-14 11:49 284 32.2
2020-Aug-14 11:39 264 3 gusting 7 32.2
2020-Aug-14 11:29 224 32.2
2020-Aug-14 11:19 340 31.7
2020-Aug-14 11:09 242 31.7
2020-Aug-14 10:59 167 3 gusting 6 31.1
2020-Aug-14 10:49 304 31.1
2020-Aug-14 10:39 307 1 gusting 6 30.6
2020-Aug-14 10:29 088 4 gusting 5 31.1
2020-Aug-14 10:19 149 31.1
2020-Aug-14 10:09 211 0 gusting 3 30.6
2020-Aug-14 09:59 263 5 gusting 6 30.6
2020-Aug-14 09:49 150 31.1
2020-Aug-14 09:39 213 1 gusting 2 31.1
2020-Aug-14 09:29 293 30.0
2020-Aug-14 09:19 145 30.0
2020-Aug-14 09:09 269 29.4
2020-Aug-14 08:59 142 28.9
2020-Aug-14 08:49 197 28.3
2020-Aug-14 08:39 193 28.3
2020-Aug-14 08:29 203 0 gusting 3 28.3
2020-Aug-14 08:19 228 0 gusting 2 28.3
2020-Aug-14 08:09 120 27.8
2020-Aug-14 07:59 125 27.2
2020-Aug-14 07:49 138 26.7
2020-Aug-14 07:39 079 27.2
2020-Aug-14 07:29 194 26.1
2020-Aug-14 07:19 205 25.0
2020-Aug-14 07:09 017 25.0
2020-Aug-14 06:59 072 24.4
2020-Aug-14 06:49 022 23.9
2020-Aug-14 06:39 030 23.3
2020-Aug-14 06:29 058 23.3
2020-Aug-14 06:19 210 22.2
2020-Aug-14 06:09 210 21.7
2020-Aug-14 05:59 210 21.1
2020-Aug-14 05:49 208 21.1
2020-Aug-14 05:39 184 20.6
2020-Aug-14 05:29 211 20.0
2020-Aug-14 05:19 215 20.0
2020-Aug-14 05:09 173 20.0
2020-Aug-14 04:59 208 20.0
2020-Aug-14 04:49 139 19.4
2020-Aug-14 04:39 136 20.0
2020-Aug-14 04:29 136 20.0
2020-Aug-14 04:19 136 20.0
2020-Aug-14 04:09 136 20.0
2020-Aug-14 03:59 136 20.0
2020-Aug-14 03:49 136 20.0
2020-Aug-14 03:39 136 20.0
2020-Aug-14 03:29 212 20.6
2020-Aug-14 03:19 136 20.6
2020-Aug-14 03:09 136 20.6
2020-Aug-14 02:59 136 20.6
2020-Aug-14 02:49 136 20.6
2020-Aug-14 02:39 071 0 gusting 1 20.6
2020-Aug-14 02:29 040 21.1
2020-Aug-14 02:19 023 21.1
2020-Aug-14 02:09 021 21.1
2020-Aug-14 01:59 020 21.1
2020-Aug-14 01:49 329 21.7
2020-Aug-14 01:39 069 21.7
2020-Aug-14 01:29 194 21.7
2020-Aug-14 01:19 194 22.2
2020-Aug-14 01:09 232 22.2
2020-Aug-14 00:59 232 22.2
2020-Aug-14 00:49 236 22.2
2020-Aug-14 00:39 239 22.8
2020-Aug-14 00:29 341 22.8
2020-Aug-14 00:19 342 23.3
2020-Aug-14 00:09 338 23.3
2020-Aug-13 23:59 051 23.3
2020-Aug-13 23:09 145 23.9
2020-Aug-13 22:59 146 23.3
2020-Aug-13 22:49 146 23.9
2020-Aug-13 22:39 145 23.9
2020-Aug-13 22:29 174 23.9
2020-Aug-13 22:19 146 24.4
2020-Aug-13 22:09 146 24.4
2020-Aug-13 21:59 121 25.0
2020-Aug-13 21:49 122 25.6
2020-Aug-13 21:39 121 25.6
2020-Aug-13 21:29 091 25.6
2020-Aug-13 21:19 096 26.1
2020-Aug-13 21:09 104 26.1
2020-Aug-13 20:59 056 26.1
2020-Aug-13 20:49 303 26.1
2020-Aug-13 20:39 307 26.1
2020-Aug-13 20:29 250 26.1
2020-Aug-13 20:19 308 4 gusting 5 26.1
2020-Aug-13 20:09 332 4 gusting 4 26.7
2020-Aug-13 19:59 009 26.7
2020-Aug-13 19:49 305 26.7
2020-Aug-13 19:39 288 2 gusting 5 26.7
2020-Aug-13 19:29 271 0 gusting 5 26.7
2020-Aug-13 19:19 288 1 gusting 2 27.2
2020-Aug-13 19:09 280 27.2